Time,TemperatureF,DewpointF,PressureIn,WindDirection,WindDirectionDegrees,WindSpeedMPH,WindSpeedGustMPH,Humidity,HourlyPrecipIn,Conditions,Clouds,dailyrainin,SoftwareType,DateUTC
2013-01-10 00:02:00,52.0,50.0,29.96,North,0,0.0,0.0,92,0.00,,,1.51,,2013-01-10 06:02:00,
2013-01-10 00:12:00,52.0,50.0,29.96,North,0,0.0,0.0,92,0.00,,,1.51,,2013-01-10 06:12:00,
2013-01-10 00:22:00,52.0,50.0,29.96,North,0,0.0,0.0,92,0.00,,,1.51,,2013-01-10 06:22:00,
2013-01-10 01:32:00,48.0,45.0,29.96,North,0,0.0,0.0,91,0.00,,,0.86,,2013-01-10 07:32:00,
2013-01-10 01:42:00,48.0,45.0,29.96,North,0,0.0,0.0,91,0.00,,,0.86,,2013-01-10 07:42:00,
2013-01-10 01:52:00,48.0,45.0,29.96,North,0,0.0,0.0,91,0.00,,,0.86,,2013-01-10 07:52:00,
2013-01-10 02:02:00,48.0,45.0,29.97,North,0,0.0,0.0,91,0.00,,,0.61,,2013-01-10 08:02:00,
2013-01-10 02:12:00,48.0,45.0,29.97,North,0,0.0,0.0,91,0.00,,,0.61,,2013-01-10 08:12:00,
2013-01-10 02:22:00,48.0,45.0,29.97,North,0,0.0,0.0,91,0.00,,,0.61,,2013-01-10 08:22:00,
2013-01-10 02:32:00,48.0,45.0,29.97,North,0,0.0,0.0,91,0.00,,,0.61,,2013-01-10 08:32:00,
2013-01-10 02:42:00,48.0,45.0,29.97,North,0,0.0,0.0,91,0.00,,,0.61,,2013-01-10 08:42:00,
2013-01-10 02:53:00,47.0,45.0,29.97,North,0,0.0,0.0,92,0.00,,,0.61,,2013-01-10 08:53:00,
2013-01-10 03:02:00,47.0,45.0,29.97,North,0,0.0,0.0,92,0.00,,,0.61,,2013-01-10 09:02:00,
2013-01-10 03:12:00,47.0,45.0,29.97,North,0,0.0,0.0,92,0.00,,,0.61,,2013-01-10 09:12:00,
2013-01-10 03:22:00,47.0,45.0,29.97,North,0,0.0,0.0,92,0.00,,,0.61,,2013-01-10 09:22:00,
2013-01-10 03:32:00,47.0,45.0,29.98,North,0,0.0,0.0,92,0.02,,,0.43,,2013-01-10 09:32:00,
2013-01-10 03:43:00,47.0,45.0,29.98,North,0,0.0,0.0,92,0.02,,,0.43,,2013-01-10 09:43:00,
2013-01-10 03:52:00,47.0,45.0,29.98,North,0,0.0,0.0,92,0.02,,,0.43,,2013-01-10 09:52:00,
2013-01-10 04:03:00,48.0,46.0,29.98,North,0,0.0,0.0,92,0.00,,,0.39,,2013-01-10 10:03:00,
2013-01-10 04:12:00,48.0,46.0,29.98,North,0,0.0,0.0,92,0.00,,,0.39,,2013-01-10 10:12:00,
2013-01-10 04:22:00,47.0,45.0,29.98,North,0,0.0,0.0,92,0.00,,,0.39,,2013-01-10 10:22:00,
2013-01-10 04:32:00,47.0,45.0,29.98,North,0,0.0,0.0,92,0.00,,,0.39,,2013-01-10 10:32:00,
2013-01-10 04:42:00,47.0,45.0,29.98,North,0,0.0,0.0,92,0.00,,,0.39,,2013-01-10 10:42:00,
2013-01-10 05:53:00,46.0,44.0,29.96,North,0,0.0,0.0,92,0.00,,,0.31,,2013-01-10 11:53:00,
2013-01-10 06:03:00,46.0,44.0,29.96,North,0,0.0,0.0,92,0.00,,,0.31,,2013-01-10 12:03:00,
2013-01-10 06:12:00,46.0,44.0,29.96,North,0,0.0,0.0,92,0.00,,,0.31,,2013-01-10 12:12:00,
2013-01-10 06:22:00,46.0,44.0,29.96,North,0,0.0,0.0,92,0.00,,,0.31,,2013-01-10 12:22:00,
2013-01-10 06:32:00,45.0,43.0,29.96,North,0,0.0,0.0,92,0.00,,,0.31,,2013-01-10 12:32:00,
2013-01-10 06:42:00,45.0,43.0,29.96,North,0,0.0,0.0,92,0.00,,,0.31,,2013-01-10 12:42:00,
2013-01-10 06:52:00,45.0,43.0,29.96,North,0,0.0,0.0,92,0.00,,,0.31,,2013-01-10 12:52:00,
2013-01-10 07:02:00,45.0,43.0,29.96,North,0,0.0,0.0,92,0.00,,,0.31,,2013-01-10 13:02:00,
2013-01-10 07:12:00,45.0,43.0,29.96,North,0,0.0,0.0,92,0.00,,,0.31,,2013-01-10 13:12:00,
2013-01-10 07:22:00,45.0,43.0,29.96,North,0,0.0,0.0,92,0.00,,,0.31,,2013-01-10 13:22:00,
2013-01-10 08:02:00,43.0,41.0,29.98,North,0,0.0,0.0,92,0.00,,,0.14,,2013-01-10 14:02:00,
2013-01-10 08:12:00,43.0,41.0,29.98,North,0,0.0,0.0,92,0.00,,,0.14,,2013-01-10 14:12:00,
2013-01-10 08:22:00,43.0,41.0,29.98,North,0,0.0,0.0,92,0.00,,,0.14,,2013-01-10 14:22:00,
2013-01-10 08:33:00,43.0,41.0,29.98,North,0,0.0,0.0,92,0.00,,,0.14,,2013-01-10 14:33:00,
2013-01-10 08:53:00,43.0,41.0,30.00,North,0,0.0,0.0,92,0.00,,,0.08,,2013-01-10 14:53:00,
2013-01-10 09:03:00,43.0,41.0,30.00,North,0,0.0,0.0,92,0.00,,,0.08,,2013-01-10 15:03:00,
2013-01-10 09:12:00,43.0,41.0,30.00,North,0,0.0,0.0,92,0.00,,,0.08,,2013-01-10 15:12:00,
2013-01-10 09:22:00,43.0,41.0,30.00,North,0,0.0,0.0,92,0.00,,,0.08,,2013-01-10 15:22:00,
2013-01-10 09:32:00,44.0,42.0,29.97,North,0,0.0,0.0,92,0.00,,,0.08,,2013-01-10 15:32:00,
2013-01-10 09:43:00,44.0,42.0,29.97,North,0,0.0,0.0,92,0.00,,,0.08,,2013-01-10 15:43:00,
2013-01-10 09:53:00,46.0,43.0,29.98,North,0,0.0,0.0,89,0.00,,,0.08,,2013-01-10 15:53:00,
2013-01-10 10:02:00,47.0,43.0,29.99,North,0,0.0,0.0,87,0.00,,,0.08,,2013-01-10 16:02:00,
2013-01-10 10:13:00,47.0,43.0,29.99,North,0,0.0,0.0,87,0.00,,,0.08,,2013-01-10 16:13:00,
2013-01-10 10:23:00,48.0,44.0,29.99,North,0,0.0,0.0,86,0.00,,,0.08,,2013-01-10 16:23:00,
2013-01-10 10:33:00,49.0,44.0,30.00,North,0,0.0,0.0,84,0.00,,,0.08,,2013-01-10 16:33:00,
2013-01-10 10:43:00,49.0,44.0,30.00,North,0,0.0,0.0,84,0.00,,,0.08,,2013-01-10 16:43:00,
2013-01-10 10:52:00,50.0,44.0,30.00,North,0,0.0,0.0,81,0.00,,,0.08,,2013-01-10 16:52:00,
2013-01-10 11:03:00,52.0,44.0,29.99,North,0,0.0,0.0,74,0.00,,,0.08,,2013-01-10 17:03:00,
2013-01-10 11:12:00,52.0,44.0,29.99,North,0,0.0,0.0,74,0.00,,,0.08,,2013-01-10 17:12:00,
2013-01-10 11:22:00,53.0,43.0,29.99,North,0,0.0,0.0,70,0.00,,,0.08,,2013-01-10 17:22:00,
2013-01-10 11:33:00,53.0,43.0,30.00,North,0,0.0,0.0,69,0.00,,,0.08,,2013-01-10 17:33:00,
2013-01-10 11:42:00,53.0,43.0,30.00,North,0,0.0,0.0,69,0.00,,,0.08,,2013-01-10 17:42:00,
2013-01-10 11:53:00,53.0,43.0,30.00,North,0,0.0,0.0,69,0.00,,,0.08,,2013-01-10 17:53:00,
2013-01-10 12:03:00,53.0,43.0,30.00,North,0,0.0,0.0,69,0.00,,,0.08,,2013-01-10 18:03:00,
2013-01-10 12:12:00,53.0,43.0,30.00,North,0,0.0,0.0,69,0.00,,,0.08,,2013-01-10 18:12:00,
2013-01-10 14:03:00,64.0,47.0,29.95,North,0,0.0,0.0,55,0.00,,,0.02,,2013-01-10 20:03:00,
2013-01-10 14:13:00,64.0,47.0,29.95,North,0,0.0,0.0,55,0.00,,,0.02,,2013-01-10 20:13:00,
2013-01-10 14:24:00,64.0,47.0,29.95,North,0,0.0,0.0,55,0.00,,,0.02,,2013-01-10 20:24:00,
2013-01-10 14:33:00,63.0,48.0,29.94,North,0,0.0,0.0,57,0.00,,,0.02,,2013-01-10 20:33:00,
2013-01-10 14:42:00,63.0,48.0,29.94,North,0,0.0,0.0,57,0.00,,,0.02,,2013-01-10 20:42:00,
2013-01-10 14:53:00,65.0,46.0,29.93,North,0,0.0,0.0,50,0.00,,,0.02,,2013-01-10 20:53:00,
2013-01-10 15:03:00,64.0,46.0,29.94,North,0,0.0,0.0,52,0.00,,,0.02,,2013-01-10 21:03:00,
2013-01-10 15:12:00,65.0,46.0,29.93,North,0,0.0,0.0,51,0.00,,,0.02,,2013-01-10 21:12:00,
2013-01-10 15:23:00,65.0,46.0,29.93,North,0,0.0,0.0,51,0.00,,,0.02,,2013-01-10 21:23:00,
2013-01-10 15:33:00,65.0,46.0,29.93,North,0,0.0,0.0,51,0.00,,,0.02,,2013-01-10 21:33:00,
2013-01-10 15:42:00,65.0,46.0,29.93,North,0,0.0,0.0,51,0.00,,,0.02,,2013-01-10 21:42:00,
2013-01-10 15:53:00,65.0,45.0,29.94,North,0,0.0,0.0,49,0.00,,,0.02,,2013-01-10 21:53:00,
2013-01-10 16:03:00,64.0,45.0,29.94,North,0,0.0,0.0,51,0.00,,,0.02,,2013-01-10 22:03:00,
2013-01-10 16:12:00,63.0,46.0,29.94,North,0,0.0,0.0,54,0.00,,,0.02,,2013-01-10 22:12:00,
2013-01-10 16:25:00,63.0,46.0,29.94,North,0,0.0,0.0,54,0.00,,,0.02,,2013-01-10 22:25:00,
2013-01-10 16:33:00,62.0,46.0,29.94,North,0,0.0,0.0,55,0.00,,,0.02,,2013-01-10 22:33:00,
2013-01-10 16:43:00,62.0,46.0,29.94,North,0,0.0,0.0,55,0.00,,,0.02,,2013-01-10 22:43:00,
2013-01-10 16:51:00,60.0,45.0,29.94,North,0,0.0,0.0,58,0.00,,,0.02,,2013-01-10 22:51:00,
2013-01-10 17:02:00,61.0,46.0,29.94,North,0,0.0,0.0,57,0.00,,,0.02,,2013-01-10 23:02:00,
2013-01-10 17:12:00,60.0,45.0,29.94,North,0,0.0,0.0,58,0.00,,,0.02,,2013-01-10 23:12:00,
2013-01-10 17:23:00,60.0,45.0,29.94,North,0,0.0,0.0,58,0.00,,,0.02,,2013-01-10 23:23:00,
2013-01-10 17:33:00,60.0,45.0,29.94,North,0,0.0,0.0,58,0.00,,,0.02,,2013-01-10 23:33:00,
2013-01-10 17:43:00,60.0,45.0,29.94,North,0,0.0,0.0,58,0.00,,,0.02,,2013-01-10 23:43:00,
2013-01-10 18:33:00,55.0,45.0,29.94,North,0,0.0,0.0,68,0.00,,,0.02,,2013-01-11 00:33:00,
2013-01-10 18:43:00,55.0,45.0,29.94,North,0,0.0,0.0,68,0.00,,,0.02,,2013-01-11 00:43:00,
2013-01-10 18:53:00,55.0,45.0,29.94,North,0,0.0,0.0,68,0.00,,,0.02,,2013-01-11 00:53:00,
2013-01-10 19:03:00,55.0,45.0,29.94,North,0,0.0,0.0,68,0.00,,,0.02,,2013-01-11 01:03:00,
2013-01-10 19:13:00,49.0,42.0,29.95,North,0,0.0,0.0,78,0.00,,,0.02,,2013-01-11 01:13:00,
2013-01-10 19:24:00,49.0,42.0,29.95,North,0,0.0,0.0,78,0.00,,,0.02,,2013-01-11 01:24:00,
2013-01-10 19:34:00,49.0,42.0,29.95,North,0,0.0,0.0,78,0.00,,,0.02,,2013-01-11 01:34:00,
2013-01-10 19:43:00,49.0,42.0,29.95,North,0,0.0,0.0,78,0.00,,,0.02,,2013-01-11 01:43:00,
2013-01-10 19:53:00,49.0,43.0,29.96,North,0,0.0,0.0,79,0.00,,,0.02,,2013-01-11 01:53:00,
2013-01-10 20:02:00,49.0,43.0,29.96,North,0,0.0,0.0,79,0.00,,,0.02,,2013-01-11 02:02:00,
2013-01-10 20:13:00,49.0,43.0,29.96,North,0,0.0,0.0,79,0.00,,,0.02,,2013-01-11 02:13:00,
2013-01-10 20:23:00,49.0,43.0,29.96,North,0,0.0,0.0,79,0.00,,,0.02,,2013-01-11 02:23:00,
2013-01-10 20:54:00,49.0,43.0,29.95,North,0,0.0,0.0,81,0.00,,,0.02,,2013-01-11 02:54:00,
2013-01-10 21:02:00,49.0,43.0,29.95,North,0,0.0,0.0,81,0.00,,,0.02,,2013-01-11 03:02:00,
2013-01-10 21:12:00,49.0,43.0,29.95,North,0,0.0,0.0,81,0.00,,,0.02,,2013-01-11 03:12:00,
2013-01-10 21:23:00,49.0,43.0,29.95,North,0,0.0,0.0,81,0.00,,,0.02,,2013-01-11 03:23:00,
2013-01-10 22:33:00,49.0,43.0,29.97,North,0,0.0,0.0,79,0.00,,,0.02,,2013-01-11 04:33:00,
2013-01-10 22:43:00,49.0,43.0,29.97,North,0,0.0,0.0,79,0.00,,,0.02,,2013-01-11 04:43:00,
2013-01-10 22:53:00,49.0,43.0,29.97,North,0,0.0,0.0,79,0.00,,,0.02,,2013-01-11 04:53:00,
2013-01-10 23:03:00,49.0,43.0,29.97,North,0,0.0,0.0,79,0.00,,,0.02,,2013-01-11 05:03:00,
2013-01-10 23:12:00,49.0,43.0,29.97,North,0,0.0,0.0,79,0.00,,,0.02,,2013-01-11 05:12:00,
2013-01-10 23:53:00,48.0,42.0,29.97,North,0,0.0,0.0,81,0.00,,,0.02,,2013-01-11 05:53:00,